createdAt,value
2018-08-11T00:00:41.280Z,3.33
2018-08-11T00:03:09.649Z,3.20
2018-08-11T00:05:38.024Z,3.27
2018-08-11T00:08:06.393Z,3.50
2018-08-11T00:10:34.782Z,3.63
2018-08-11T00:13:03.058Z,3.80
2018-08-11T00:15:31.219Z,3.37
2018-08-11T00:17:59.498Z,3.10
2018-08-11T00:20:28.488Z,3.33
2018-08-11T00:22:56.800Z,3.30
2018-08-11T00:25:24.947Z,3.70
2018-08-11T00:27:53.324Z,3.27
2018-08-11T00:30:21.680Z,3.90
2018-08-11T00:32:49.965Z,3.60
2018-08-11T00:35:18.133Z,3.13
2018-08-11T00:37:46.317Z,4.10
2018-08-11T00:40:17.187Z,3.83
2018-08-11T00:42:46.406Z,4.07
2018-08-11T00:45:15.134Z,4.63
2018-08-11T00:47:43.472Z,4.23
2018-08-11T00:50:13.975Z,3.53
2018-08-11T00:52:42.325Z,3.70
2018-08-11T00:55:12.022Z,3.83
2018-08-11T00:57:40.153Z,3.73
2018-08-11T01:00:11.488Z,3.57
2018-08-11T01:02:40.192Z,3.77
2018-08-11T01:05:10.614Z,3.67
2018-08-11T01:07:39.042Z,3.80
2018-08-11T01:10:08.086Z,3.40
2018-08-11T01:12:36.309Z,3.97
2018-08-11T01:15:05.354Z,3.60
2018-08-11T01:17:33.682Z,3.90
2018-08-11T01:20:01.958Z,3.90
2018-08-11T01:22:30.226Z,3.80
2018-08-11T01:24:58.597Z,4.07
2018-08-11T01:27:26.981Z,3.40
2018-08-11T01:29:55.161Z,3.77
2018-08-11T01:32:23.231Z,4.13
2018-08-11T01:34:51.505Z,3.93
2018-08-11T01:37:19.769Z,3.77
2018-08-11T01:39:48.054Z,4.00
2018-08-11T01:42:16.217Z,4.00
2018-08-11T01:44:44.611Z,3.90
2018-08-11T01:47:12.782Z,3.93
2018-08-11T01:49:40.938Z,3.73
2018-08-11T01:52:09.118Z,4.07
2018-08-11T01:54:37.293Z,4.10
2018-08-11T01:57:05.664Z,3.80
2018-08-11T01:59:33.842Z,4.23
2018-08-11T02:02:01.985Z,4.10
2018-08-11T02:04:30.389Z,3.60
2018-08-11T02:06:58.597Z,3.87
2018-08-11T02:09:26.948Z,4.37
2018-08-11T02:11:55.118Z,3.80
2018-08-11T02:14:23.286Z,4.70
2018-08-11T02:16:51.465Z,4.00
2018-08-11T02:19:19.637Z,3.67
2018-08-11T02:21:47.817Z,3.53
2018-08-11T02:24:16.090Z,3.90
2018-08-11T02:26:44.360Z,3.70
2018-08-11T02:29:12.542Z,3.77
2018-08-11T02:31:40.714Z,3.97
2018-08-11T02:34:08.989Z,4.07
2018-08-11T02:36:37.167Z,4.53
2018-08-11T02:39:08.601Z,4.07
2018-08-11T02:41:36.947Z,4.10
2018-08-11T02:44:05.166Z,3.90
2018-08-11T02:46:33.446Z,4.20
2018-08-11T02:49:01.624Z,4.37
2018-08-11T02:51:29.787Z,4.33
2018-08-11T02:53:57.542Z,4.53
2018-08-11T02:56:25.617Z,4.20
2018-08-11T02:58:53.885Z,4.37
2018-08-11T03:01:22.066Z,3.70
2018-08-11T03:03:50.347Z,4.63
2018-08-11T03:06:18.722Z,4.33
2018-08-11T03:08:46.895Z,4.03
2018-08-11T03:11:15.170Z,4.27
2018-08-11T03:13:43.218Z,4.30
2018-08-11T03:16:11.421Z,4.10
2018-08-11T03:18:39.669Z,4.07
2018-08-11T03:21:07.861Z,4.40
2018-08-11T03:23:36.022Z,4.13
2018-08-11T03:26:04.106Z,4.20
2018-08-11T03:28:32.279Z,4.30
2018-08-11T03:31:00.654Z,4.17
2018-08-11T03:33:28.921Z,4.17
2018-08-11T03:35:57.093Z,3.90
2018-08-11T03:38:25.364Z,4.67
2018-08-11T03:40:53.541Z,4.60
2018-08-11T03:43:21.731Z,4.90
2018-08-11T03:45:49.885Z,4.87
2018-08-11T03:48:18.088Z,4.97
2018-08-11T03:50:46.140Z,4.53
2018-08-11T03:53:14.315Z,5.20
2018-08-11T03:55:42.582Z,5.50
2018-08-11T03:58:10.764Z,6.30
2018-08-11T04:00:38.817Z,5.17
2018-08-11T04:03:07.006Z,5.53
2018-08-11T04:05:35.073Z,5.80
2018-08-11T04:08:03.241Z,6.03
2018-08-11T04:10:31.438Z,5.70
2018-08-11T04:12:59.689Z,5.77
2018-08-11T04:15:27.870Z,5.20
2018-08-11T04:17:56.149Z,5.90
2018-08-11T04:20:24.204Z,5.47
2018-08-11T04:22:52.393Z,5.20
2018-08-11T04:25:20.553Z,5.73
2018-08-11T04:28:40.849Z,6.43
2018-08-11T04:31:09.126Z,7.27
2018-08-11T04:33:37.306Z,7.17
2018-08-11T04:36:05.487Z,6.20
2018-08-11T04:38:33.754Z,5.00
2018-08-11T04:41:01.822Z,4.30
2018-08-11T04:43:29.998Z,4.70
2018-08-11T04:45:58.171Z,4.70
2018-08-11T04:48:26.346Z,4.73
2018-08-11T04:50:54.405Z,4.77
2018-08-11T04:53:22.689Z,4.87
2018-08-11T04:55:50.857Z,4.67
2018-08-11T04:58:18.913Z,4.67
2018-08-11T05:00:47.212Z,5.43
2018-08-11T05:03:15.253Z,5.03
2018-08-11T05:05:43.445Z,4.13
2018-08-11T05:08:11.294Z,4.60
2018-08-11T05:10:39.481Z,5.03
2018-08-11T05:13:07.658Z,4.33
2018-08-11T05:15:35.930Z,4.40
2018-08-11T05:18:04.205Z,4.67
2018-08-11T05:20:32.388Z,4.40
2018-08-11T05:23:00.659Z,4.30
2018-08-11T05:25:28.733Z,5.40
2018-08-11T05:27:56.914Z,3.70
2018-08-11T05:30:25.174Z,3.77
2018-08-11T05:32:53.145Z,3.60
2018-08-11T05:35:21.317Z,3.30
2018-08-11T05:37:49.494Z,3.33
2018-08-11T05:40:17.549Z,3.47
2018-08-11T05:42:45.630Z,3.93
2018-08-11T05:45:13.905Z,3.40
2018-08-11T05:47:41.647Z,3.20
2018-08-11T05:50:09.847Z,3.40
2018-08-11T05:52:38.117Z,3.30
2018-08-11T05:55:06.298Z,2.90
2018-08-11T05:57:34.574Z,3.00
2018-08-11T06:00:02.817Z,3.50
2018-08-11T06:02:30.685Z,3.20
2018-08-11T06:04:59.185Z,3.07
2018-08-11T06:07:27.362Z,3.40
2018-08-11T06:09:55.348Z,3.57
2018-08-11T06:12:23.392Z,3.20
2018-08-11T06:14:51.681Z,3.23
2018-08-11T06:17:20.062Z,3.57
2018-08-11T06:19:48.225Z,3.90
2018-08-11T06:22:16.500Z,3.60
2018-08-11T06:24:44.768Z,8.40
2018-08-11T06:27:12.749Z,3.90
2018-08-11T06:29:40.965Z,3.17
2018-08-11T06:32:09.105Z,2.63
2018-08-11T06:34:37.136Z,2.57
2018-08-11T06:37:04.966Z,2.53
2018-08-11T06:39:32.684Z,2.93
2018-08-11T06:42:00.853Z,3.00
2018-08-11T06:44:29.033Z,2.83
2018-08-11T06:46:57.226Z,3.23
2018-08-11T06:49:24.977Z,3.20
2018-08-11T06:51:53.149Z,3.00
2018-08-11T06:54:21.419Z,2.83
2018-08-11T06:56:49.693Z,2.77
2018-08-11T06:59:17.657Z,3.33
2018-08-11T07:01:45.841Z,4.50
2018-08-11T07:04:14.010Z,3.20
2018-08-11T07:06:42.194Z,2.80
2018-08-11T07:09:10.830Z,3.93
2018-08-11T07:11:39.138Z,3.53
2018-08-11T07:14:07.222Z,2.77
2018-08-11T07:16:35.601Z,3.03
2018-08-11T07:19:03.874Z,2.70
2018-08-11T07:21:32.141Z,2.80
2018-08-11T07:24:00.322Z,3.00
2018-08-11T07:26:28.535Z,3.00
2018-08-11T07:28:56.771Z,3.33
2018-08-11T07:31:25.055Z,4.47
2018-08-11T07:33:53.218Z,2.80
2018-08-11T07:36:21.460Z,3.50
2018-08-11T07:38:49.560Z,3.70
2018-08-11T07:41:17.728Z,2.90
2018-08-11T07:43:46.113Z,3.20
2018-08-11T07:46:14.382Z,3.07
2018-08-11T07:48:42.523Z,3.93
2018-08-11T07:51:10.525Z,2.97
2018-08-11T07:53:38.698Z,3.20
2018-08-11T07:56:06.980Z,2.77
2018-08-11T07:58:35.153Z,3.20
2018-08-11T08:01:03.420Z,2.70
2018-08-11T08:03:31.489Z,2.57
2018-08-11T08:05:59.770Z,2.77
2018-08-11T08:08:28.043Z,2.97
2018-08-11T08:10:56.109Z,2.50
2018-08-11T08:13:24.195Z,3.10
2018-08-11T08:15:52.466Z,2.50
2018-08-11T08:18:20.543Z,2.50
2018-08-11T08:20:48.917Z,2.33
2018-08-11T08:23:16.670Z,2.80
2018-08-11T08:25:44.437Z,11.13
2018-08-11T08:28:12.514Z,12.43
2018-08-11T08:30:40.258Z,4.97
2018-08-11T08:33:07.992Z,3.43
2018-08-11T08:35:36.205Z,5.30
2018-08-11T08:38:04.486Z,5.50
2018-08-11T08:40:32.754Z,2.70
2018-08-11T08:43:00.939Z,5.10
2018-08-11T08:45:28.997Z,5.60
2018-08-11T08:47:57.281Z,3.20
2018-08-11T08:50:25.452Z,2.33
2018-08-11T08:52:53.328Z,2.40
2018-08-11T08:55:21.485Z,2.80
2018-08-11T08:57:49.557Z,4.10
2018-08-11T09:00:17.624Z,3.07
2018-08-11T09:02:46.592Z,2.50
2018-08-11T09:05:14.689Z,2.60
2018-08-11T09:07:43.282Z,2.77
2018-08-11T09:10:11.394Z,2.50
2018-08-11T09:12:39.734Z,2.13
2018-08-11T09:15:08.061Z,2.30
2018-08-11T09:17:36.274Z,2.73
2018-08-11T09:20:04.658Z,2.30
2018-08-11T09:22:32.934Z,2.77
2018-08-11T09:25:01.212Z,2.40
2018-08-11T09:27:29.382Z,2.33
2018-08-11T09:29:57.749Z,2.30
2018-08-11T09:32:25.939Z,2.30
2018-08-11T09:34:54.308Z,3.63
2018-08-11T09:37:22.372Z,3.63
2018-08-11T09:39:50.662Z,3.43
2018-08-11T09:42:18.726Z,3.70
2018-08-11T09:44:47.006Z,2.70
2018-08-11T09:47:14.746Z,2.67
2018-08-11T09:49:42.938Z,2.67
2018-08-11T09:52:11.162Z,3.20
2018-08-11T09:54:38.954Z,2.90
2018-08-11T09:57:07.145Z,2.90
2018-08-11T09:59:35.304Z,2.90
2018-08-11T10:02:09.017Z,2.80
2018-08-11T10:04:37.194Z,2.73
2018-08-11T10:07:05.369Z,3.43
2018-08-11T10:09:33.140Z,3.00
2018-08-11T10:12:01.310Z,3.33
2018-08-11T10:14:29.587Z,2.57
2018-08-11T10:16:57.304Z,3.40
2018-08-11T10:19:25.626Z,3.43
2018-08-11T10:21:53.954Z,3.70
2018-08-11T10:24:22.174Z,4.37
2018-08-11T10:26:50.651Z,3.63
2018-08-11T10:29:18.929Z,4.70
2018-08-11T10:31:47.297Z,7.83
2018-08-11T10:34:15.473Z,6.20
2018-08-11T10:36:43.704Z,8.03
2018-08-11T10:39:12.504Z,7.93
2018-08-11T10:41:41.028Z,3.70
2018-08-11T10:44:10.023Z,3.83
2018-08-11T10:46:38.378Z,5.20
2018-08-11T10:49:06.821Z,3.93
2018-08-11T10:51:35.161Z,4.00
2018-08-11T10:54:03.430Z,3.30
2018-08-11T10:56:31.562Z,2.67
2018-08-11T10:58:59.769Z,2.70
2018-08-11T11:01:27.913Z,5.07
2018-08-11T11:03:56.114Z,4.77
2018-08-11T11:06:24.282Z,4.23
2018-08-11T11:08:52.466Z,3.67
2018-08-11T11:11:20.637Z,3.73
2018-08-11T11:13:48.702Z,3.60
2018-08-11T11:16:16.887Z,3.70
2018-08-11T11:18:45.156Z,2.93
2018-08-11T11:21:13.340Z,2.73
2018-08-11T11:23:41.502Z,2.90
2018-08-11T11:26:09.662Z,2.73
2018-08-11T11:28:37.847Z,2.87
2018-08-11T11:31:06.021Z,3.60
2018-08-11T11:33:34.094Z,2.67
2018-08-11T11:36:02.267Z,4.67
2018-08-11T11:38:30.535Z,7.23
2018-08-11T11:40:58.701Z,3.87
2018-08-11T11:43:26.949Z,4.20
2018-08-11T11:45:54.957Z,2.80
2018-08-11T11:48:23.018Z,2.77
2018-08-11T11:50:50.801Z,5.37
2018-08-11T11:53:18.949Z,5.43
2018-08-11T11:55:47.125Z,5.47
2018-08-11T11:58:15.309Z,8.40
2018-08-11T12:00:43.485Z,8.40
2018-08-11T12:03:11.752Z,4.33
2018-08-11T12:05:39.976Z,2.97
2018-08-11T12:08:08.108Z,4.87
2018-08-11T12:10:36.269Z,4.40
2018-08-11T12:13:04.442Z,2.60
2018-08-11T12:15:32.621Z,2.60
2018-08-11T12:18:00.677Z,2.93
2018-08-11T12:20:28.961Z,3.00
2018-08-11T12:22:56.689Z,2.90
2018-08-11T12:25:24.766Z,6.37
2018-08-11T12:27:52.965Z,5.23
2018-08-11T12:30:21.050Z,5.87
2018-08-11T12:32:49.112Z,4.40
2018-08-11T12:35:17.296Z,5.43
2018-08-11T12:37:45.280Z,6.60
2018-08-11T12:40:13.321Z,5.50
2018-08-11T12:42:41.497Z,5.40
2018-08-11T12:45:09.779Z,3.37
2018-08-11T12:47:37.953Z,2.90
2018-08-11T12:50:06.120Z,3.03
2018-08-11T12:52:34.298Z,10.73
2018-08-11T12:55:02.565Z,13.57
2018-08-11T12:57:30.635Z,12.53
2018-08-11T12:59:58.918Z,9.87
2018-08-11T13:02:27.193Z,8.33
2018-08-11T13:04:55.461Z,4.60
2018-08-11T13:07:23.847Z,5.23
2018-08-11T13:09:52.024Z,4.10
2018-08-11T13:12:19.746Z,3.10
2018-08-11T13:14:47.492Z,2.67
2018-08-11T13:17:15.241Z,3.00
2018-08-11T13:19:42.968Z,2.87
2018-08-11T13:22:10.706Z,2.80
2018-08-11T13:24:38.437Z,2.97
2018-08-11T13:27:06.174Z,3.23
2018-08-11T13:29:34.462Z,3.13
2018-08-11T13:32:02.712Z,2.47
2018-08-11T13:34:30.432Z,2.90
2018-08-11T13:36:58.140Z,3.00
2018-08-11T13:39:25.881Z,3.10
2018-08-11T13:41:53.608Z,2.67
2018-08-11T13:44:21.931Z,2.43
2018-08-11T13:46:49.992Z,2.40
2018-08-11T13:49:17.788Z,2.50
2018-08-11T13:51:45.533Z,2.77
2018-08-11T13:54:13.974Z,2.93
2018-08-11T13:56:42.086Z,2.30
2018-08-11T13:59:10.457Z,2.43
2018-08-11T14:01:38.630Z,2.50
2018-08-11T14:04:06.809Z,2.20
2018-08-11T14:06:35.087Z,2.60
2018-08-11T14:09:03.461Z,2.83
2018-08-11T14:11:31.777Z,2.60
2018-08-11T14:13:59.903Z,2.80
2018-08-11T14:16:27.981Z,2.47
2018-08-11T14:18:56.370Z,2.40
2018-08-11T14:21:24.739Z,2.50
2018-08-11T14:23:53.118Z,2.50
2018-08-11T14:26:20.858Z,2.33
2018-08-11T14:28:49.054Z,2.30
2018-08-11T14:31:17.438Z,2.00
2018-08-11T14:33:45.306Z,2.60
2018-08-11T14:36:13.374Z,2.27
2018-08-11T14:38:41.803Z,2.33
2018-08-11T14:41:10.053Z,2.17
2018-08-11T14:43:38.293Z,2.27
2018-08-11T14:46:06.969Z,2.43
2018-08-11T14:48:35.155Z,2.33
2018-08-11T14:51:03.520Z,2.30
2018-08-11T14:53:31.493Z,2.90
2018-08-11T14:55:59.674Z,2.30
2018-08-11T14:58:27.839Z,3.40
2018-08-11T15:00:56.023Z,2.80
2018-08-11T15:03:24.398Z,2.53
2018-08-11T15:05:52.570Z,2.73
2018-08-11T15:08:20.951Z,2.77
2018-08-11T15:10:49.092Z,3.00
2018-08-11T15:13:17.194Z,2.80
2018-08-11T15:15:45.476Z,2.60
2018-08-11T15:18:13.743Z,2.93
2018-08-11T15:20:41.900Z,2.80
2018-08-11T15:23:10.073Z,2.80
2018-08-11T15:25:38.262Z,2.60
2018-08-11T15:28:06.528Z,3.03
2018-08-11T15:30:34.619Z,2.83
2018-08-11T15:33:02.972Z,2.73
2018-08-11T15:35:30.763Z,3.30
2018-08-11T15:37:58.913Z,2.90
2018-08-11T15:40:27.170Z,2.73
2018-08-11T15:42:55.174Z,3.10
2018-08-11T15:45:23.337Z,3.10
2018-08-11T15:47:51.717Z,6.27
2018-08-11T15:50:19.818Z,18.27
2018-08-11T15:52:48.201Z,20.23
2018-08-11T15:55:16.460Z,12.50
2018-08-11T15:57:44.216Z,12.40
2018-08-11T16:00:11.962Z,10.23
2018-08-11T16:02:40.255Z,10.27
2018-08-11T16:05:08.518Z,11.73
2018-08-11T16:07:36.269Z,8.13
2018-08-11T16:10:04.498Z,10.87
2018-08-11T16:12:32.261Z,9.93
2018-08-11T16:14:59.991Z,5.13
2018-08-11T16:17:27.734Z,5.07
2018-08-11T16:19:55.450Z,4.67
2018-08-11T16:22:23.200Z,3.93
2018-08-11T16:24:50.942Z,3.40
2018-08-11T16:27:18.705Z,3.03
2018-08-11T16:29:46.453Z,2.77
2018-08-11T16:32:14.219Z,2.63
2018-08-11T16:34:42.030Z,2.73
2018-08-11T16:37:09.830Z,3.10
2018-08-11T16:39:37.571Z,2.63
2018-08-11T16:42:05.444Z,2.77
2018-08-11T16:44:33.201Z,2.80
2018-08-11T16:47:00.941Z,4.73
2018-08-11T16:49:28.690Z,3.60
2018-08-11T16:51:56.425Z,3.63
2018-08-11T16:54:24.194Z,3.87
2018-08-11T16:56:51.934Z,3.30
2018-08-11T16:59:19.743Z,3.20
2018-08-11T17:01:47.478Z,3.10
2018-08-11T17:04:15.227Z,2.90
2018-08-11T17:06:42.957Z,3.00
2018-08-11T17:09:11.455Z,3.03
2018-08-11T17:11:39.184Z,3.80
2018-08-11T17:14:07.602Z,3.60
2018-08-11T17:16:35.645Z,3.70
2018-08-11T17:19:03.434Z,3.77
2018-08-11T17:21:31.164Z,4.20
2018-08-11T17:23:59.150Z,3.27
2018-08-11T17:26:26.891Z,3.10
2018-08-11T17:28:54.606Z,3.70
2018-08-11T17:31:22.332Z,3.40
2018-08-11T17:33:50.079Z,3.30
2018-08-11T17:36:17.865Z,3.00
2018-08-11T17:38:45.781Z,2.70
2018-08-11T17:41:13.959Z,3.10
2018-08-11T17:43:42.026Z,3.13
2018-08-11T17:46:10.190Z,3.10
2018-08-11T17:48:38.366Z,2.97
2018-08-11T17:51:06.655Z,2.63
2018-08-11T17:53:34.714Z,3.10
2018-08-11T17:56:02.490Z,3.50
2018-08-11T17:58:30.754Z,3.60
2018-08-11T18:00:58.929Z,4.00
2018-08-11T18:03:26.789Z,3.03
2018-08-11T18:05:54.870Z,2.70
2018-08-11T18:08:23.029Z,2.63
2018-08-11T18:10:53.378Z,2.67
2018-08-11T18:13:21.632Z,3.03
2018-08-11T18:15:49.917Z,3.17
2018-08-11T18:18:18.200Z,3.07
2018-08-11T18:20:46.357Z,2.70
2018-08-11T18:23:14.529Z,3.13
2018-08-11T18:25:42.813Z,2.97
2018-08-11T18:28:10.985Z,2.77
2018-08-11T18:30:39.253Z,3.03
2018-08-11T18:33:07.429Z,2.67
2018-08-11T18:35:35.298Z,2.63
2018-08-11T18:38:03.571Z,2.90
2018-08-11T18:40:31.654Z,3.20
2018-08-11T18:42:59.604Z,3.37
2018-08-11T18:45:27.778Z,3.23
2018-08-11T18:47:55.849Z,3.00
2018-08-11T18:50:24.225Z,3.30
2018-08-11T18:52:52.510Z,2.90
2018-08-11T18:55:20.583Z,3.03
2018-08-11T18:57:48.753Z,3.10
2018-08-11T19:00:17.709Z,3.33
2018-08-11T19:02:46.123Z,2.67
2018-08-11T19:05:14.397Z,2.53
2018-08-11T19:07:42.816Z,3.07
2018-08-11T19:10:11.187Z,3.20
2018-08-11T19:12:39.625Z,3.07
2018-08-11T19:15:10.053Z,2.90
2018-08-11T19:17:38.441Z,2.70
2018-08-11T19:20:08.260Z,3.13
2018-08-11T19:22:36.530Z,2.60
2018-08-11T19:25:05.110Z,2.70
2018-08-11T19:27:33.387Z,2.97
2018-08-11T19:30:02.037Z,2.60
2018-08-11T19:32:30.364Z,2.90
2018-08-11T19:34:58.517Z,2.57
2018-08-11T19:37:26.893Z,2.73
2018-08-11T19:39:55.274Z,2.90
2018-08-11T19:42:23.554Z,2.40
2018-08-11T19:44:51.305Z,2.53
2018-08-11T19:47:19.578Z,2.67
2018-08-11T19:49:47.862Z,2.63
2018-08-11T19:52:15.680Z,2.43
2018-08-11T19:54:43.949Z,2.73
2018-08-11T19:57:12.186Z,2.60
2018-08-11T19:59:40.046Z,2.33
2018-08-11T20:02:08.310Z,2.20
2018-08-11T20:04:36.594Z,2.60
2018-08-11T20:07:05.109Z,2.63
2018-08-11T20:09:33.298Z,2.80
2018-08-11T20:12:01.409Z,2.40
2018-08-11T20:14:29.690Z,2.50
2018-08-11T20:16:57.849Z,2.23
2018-08-11T20:19:26.107Z,2.67
2018-08-11T20:21:54.309Z,3.20
2018-08-11T20:24:22.382Z,2.80
2018-08-11T20:26:50.662Z,2.43
2018-08-11T20:29:18.827Z,2.97
2018-08-11T20:31:47.109Z,4.10
2018-08-11T20:34:15.381Z,2.90
2018-08-11T20:36:43.350Z,2.83
2018-08-11T20:39:13.093Z,3.20
2018-08-11T20:41:41.237Z,3.13
2018-08-11T20:44:09.608Z,2.83
2018-08-11T20:46:37.892Z,3.10
2018-08-11T20:49:06.270Z,2.80
2018-08-11T20:51:34.548Z,2.80
2018-08-11T20:54:02.930Z,2.73
2018-08-11T20:56:31.182Z,2.90
2018-08-11T20:58:59.473Z,3.07
2018-08-11T21:01:27.640Z,3.20
2018-08-11T21:03:55.712Z,2.97
2018-08-11T21:06:23.995Z,2.87
2018-08-11T21:08:52.242Z,2.67
2018-08-11T21:11:20.654Z,2.80
2018-08-11T21:13:48.909Z,2.90
2018-08-11T21:16:17.105Z,2.70
2018-08-11T21:18:45.271Z,2.90
2018-08-11T21:21:13.544Z,2.63
2018-08-11T21:23:41.852Z,2.60
2018-08-11T21:26:10.000Z,2.80
2018-08-11T21:28:38.266Z,2.80
2018-08-11T21:31:06.445Z,2.90
2018-08-11T21:33:34.714Z,2.57
2018-08-11T21:36:03.093Z,3.10
2018-08-11T21:38:31.259Z,2.73
2018-08-11T21:40:59.224Z,3.40
2018-08-11T21:43:27.509Z,3.10
2018-08-11T21:45:55.894Z,2.47
2018-08-11T21:48:23.961Z,2.67
2018-08-11T21:50:52.124Z,3.13
2018-08-11T21:53:20.388Z,2.83
2018-08-11T21:55:48.588Z,2.87
2018-08-11T21:58:16.883Z,3.13
2018-08-11T22:00:50.436Z,2.93
2018-08-11T22:03:18.294Z,2.77
2018-08-11T22:05:46.494Z,3.97
2018-08-11T22:08:14.761Z,3.43
2018-08-11T22:10:42.943Z,3.20
2018-08-11T22:13:11.094Z,2.90
2018-08-11T22:15:39.424Z,3.20
2018-08-11T22:18:07.553Z,3.30
2018-08-11T22:20:35.841Z,2.90
2018-08-11T22:23:04.208Z,3.33
2018-08-11T22:25:32.690Z,3.07
2018-08-11T22:28:01.079Z,3.20
2018-08-11T22:30:28.849Z,2.93
2018-08-11T22:32:57.114Z,2.77
2018-08-11T22:35:25.115Z,2.97
2018-08-11T22:37:53.462Z,3.00
2018-08-11T22:40:21.834Z,2.73
2018-08-11T22:42:50.114Z,2.97
2018-08-11T22:45:18.491Z,2.90
2018-08-11T22:47:46.673Z,3.20
2018-08-11T22:50:14.462Z,2.53
2018-08-11T22:52:42.697Z,2.80
2018-08-11T22:55:10.872Z,2.80
2018-08-11T22:57:39.066Z,3.00
2018-08-11T23:00:18.171Z,2.77
2018-08-11T23:02:46.455Z,3.00
2018-08-11T23:05:15.150Z,2.90
2018-08-11T23:07:43.520Z,3.40
2018-08-11T23:10:12.938Z,2.73
2018-08-11T23:12:41.908Z,3.03
2018-08-11T23:15:14.131Z,2.83
2018-08-11T23:17:43.649Z,2.83
2018-08-11T23:20:12.053Z,3.10
2018-08-11T23:22:40.238Z,3.07
2018-08-11T23:25:08.971Z,2.97
2018-08-11T23:27:37.102Z,3.30
2018-08-11T23:30:08.230Z,2.60
2018-08-11T23:32:36.722Z,2.63
2018-08-11T23:35:05.087Z,3.17
2018-08-11T23:37:33.258Z,2.90
2018-08-11T23:40:01.522Z,2.93
2018-08-11T23:42:29.487Z,2.70
2018-08-11T23:44:57.949Z,3.27
2018-08-11T23:47:26.266Z,2.97
2018-08-11T23:49:54.594Z,2.80
2018-08-11T23:52:22.818Z,2.70
2018-08-11T23:54:50.986Z,3.10
2018-08-11T23:57:19.370Z,2.97
2018-08-11T23:59:47.538Z,3.20
